createdAt,value
2023-05-22T00:01:56.824Z,47.28
2023-05-22T00:04:24.065Z,47.27
2023-05-22T00:06:50.999Z,47.23
2023-05-22T00:09:18.065Z,47.48
2023-05-22T00:11:45.146Z,47.41
2023-05-22T00:14:13.778Z,47.34
2023-05-22T00:16:41.373Z,47.48
2023-05-22T00:19:13.402Z,47.67
2023-05-22T00:22:06.179Z,47.69
2023-05-22T00:24:36.248Z,47.83
2023-05-22T00:27:03.194Z,47.94
2023-05-22T00:29:30.141Z,48.05
2023-05-22T00:31:57.566Z,48.16
2023-05-22T00:34:24.552Z,48.29
2023-05-22T00:36:51.388Z,48.32
2023-05-22T00:39:18.335Z,48.26
2023-05-22T00:41:46.058Z,48.40
2023-05-22T00:44:13.270Z,48.44
2023-05-22T00:46:40.965Z,48.49
2023-05-22T00:49:07.887Z,48.36
2023-05-22T00:51:34.759Z,48.16
2023-05-22T00:54:01.741Z,48.23
2023-05-22T00:56:29.273Z,48.16
2023-05-22T00:58:56.401Z,48.21
2023-05-22T01:01:23.440Z,48.33
2023-05-22T01:03:50.915Z,48.49
2023-05-22T01:06:18.714Z,48.73
2023-05-22T01:08:45.614Z,48.80
2023-05-22T01:11:18.316Z,48.72
2023-05-22T01:14:04.511Z,48.62
2023-05-22T01:17:00.163Z,48.62
2023-05-22T01:23:39.142Z,48.65
2023-05-22T01:26:12.838Z,48.61
2023-05-22T01:28:56.832Z,48.63
2023-05-22T01:31:27.678Z,48.49
2023-05-22T01:33:57.273Z,48.45
2023-05-22T01:36:26.308Z,48.53
2023-05-22T01:38:53.198Z,48.62
2023-05-22T01:41:20.206Z,48.69
2023-05-22T01:43:47.423Z,48.90
2023-05-22T01:46:14.685Z,49.02
2023-05-22T01:48:41.876Z,49.16
2023-05-22T01:51:18.425Z,49.35
2023-05-22T01:54:06.273Z,49.83
2023-05-22T01:56:57.246Z,49.75
2023-05-22T01:59:33.128Z,49.88
2023-05-22T02:02:04.047Z,50.09
2023-05-22T02:04:31.170Z,50.17
2023-05-22T02:06:58.490Z,50.18
2023-05-22T02:09:25.939Z,50.28
2023-05-22T02:11:52.847Z,50.50
2023-05-22T02:14:19.784Z,50.71
2023-05-22T02:16:47.875Z,50.76
2023-05-22T02:19:27.227Z,50.88
2023-05-22T02:21:57.333Z,50.98
2023-05-22T02:24:24.201Z,50.95
2023-05-22T02:26:51.567Z,51.00
2023-05-22T02:29:19.076Z,50.85
2023-05-22T02:31:46.121Z,50.75
2023-05-22T02:34:13.037Z,50.96
2023-05-22T02:36:40.960Z,51.08
2023-05-22T02:39:08.836Z,51.04
2023-05-22T02:41:35.680Z,51.01
2023-05-22T02:44:12.070Z,51.18
2023-05-22T02:46:39.036Z,51.23
2023-05-22T02:49:06.099Z,51.18
2023-05-22T02:51:33.297Z,50.96
2023-05-22T02:54:00.209Z,50.74
2023-05-22T02:56:29.038Z,50.49
2023-05-22T02:58:57.260Z,50.19
2023-05-22T03:01:26.632Z,49.93
2023-05-22T03:03:55.085Z,50.21
2023-05-22T03:06:23.352Z,50.32
2023-05-22T03:08:50.885Z,50.27
2023-05-22T03:11:17.776Z,50.03
2023-05-22T03:13:45.009Z,50.24
2023-05-22T03:16:12.014Z,50.38
2023-05-22T03:18:41.893Z,49.94
2023-05-22T03:21:11.934Z,49.94
2023-05-22T03:23:44.937Z,49.83
2023-05-22T03:26:14.748Z,49.68
2023-05-22T03:28:41.903Z,49.55
2023-05-22T03:31:09.515Z,49.47
2023-05-22T03:33:45.886Z,49.63
2023-05-22T03:36:12.905Z,49.64
2023-05-22T03:38:40.099Z,49.48
2023-05-22T03:41:07.962Z,49.11
2023-05-22T03:43:34.865Z,49.03
2023-05-22T03:46:01.819Z,48.93
2023-05-22T03:48:28.785Z,49.08
2023-05-22T03:51:20.609Z,48.83
2023-05-22T03:53:50.411Z,48.87
2023-05-22T03:56:17.246Z,48.87
2023-05-22T03:58:44.154Z,48.57
2023-05-22T04:01:11.423Z,48.56
2023-05-22T04:03:38.382Z,48.48
2023-05-22T04:06:05.834Z,48.01
2023-05-22T04:08:32.799Z,47.95
2023-05-22T04:11:00.686Z,48.20
2023-05-22T04:13:27.739Z,48.30
2023-05-22T04:15:54.998Z,48.54
2023-05-22T04:18:21.858Z,48.71
2023-05-22T04:20:51.816Z,48.57
2023-05-22T04:23:19.177Z,48.56
2023-05-22T04:25:48.031Z,48.21
2023-05-22T04:28:17.747Z,48.30
2023-05-22T04:30:46.511Z,47.94
2023-05-22T04:33:13.708Z,48.05
2023-05-22T04:35:44.410Z,48.15
2023-05-22T04:38:11.282Z,48.37
2023-05-22T04:40:38.550Z,48.15
2023-05-22T04:43:06.280Z,48.08
2023-05-22T04:45:33.652Z,47.84
2023-05-22T04:48:02.726Z,47.45
2023-05-22T04:50:33.090Z,47.37
2023-05-22T04:53:00.160Z,47.62
2023-05-22T04:55:27.006Z,47.64
2023-05-22T04:57:53.980Z,47.63
2023-05-22T05:00:26.527Z,47.69
2023-05-22T05:02:53.747Z,47.62
2023-05-22T05:05:20.866Z,47.37
2023-05-22T05:07:50.101Z,47.09
2023-05-22T05:10:17.771Z,47.19
2023-05-22T05:12:44.679Z,46.18
2023-05-22T05:15:11.771Z,45.81
2023-05-22T05:17:39.388Z,45.29
2023-05-22T05:20:08.986Z,45.17
2023-05-22T05:22:37.510Z,44.79
2023-05-22T05:25:05.845Z,44.48
2023-05-22T05:27:33.134Z,43.81
2023-05-22T05:30:00.523Z,43.32
2023-05-22T05:32:38.955Z,43.44
2023-05-22T05:35:51.688Z,43.06
2023-05-22T05:38:23.541Z,42.97
2023-05-22T05:40:53.370Z,42.81
2023-05-22T05:43:20.829Z,42.73
2023-05-22T05:46:17.508Z,42.57
2023-05-22T05:48:44.931Z,42.87
2023-05-22T05:51:11.920Z,42.72
2023-05-22T05:53:41.931Z,42.33
2023-05-22T05:56:12.071Z,41.79
2023-05-22T05:58:41.772Z,41.42
2023-05-22T06:01:27.555Z,41.50
2023-05-22T06:03:59.478Z,41.65
2023-05-22T06:06:40.626Z,41.28
2023-05-22T06:09:25.057Z,41.08
2023-05-22T06:12:21.533Z,40.95
2023-05-22T06:14:48.507Z,40.98
2023-05-22T06:18:22.067Z,41.19
2023-05-22T06:20:49.146Z,41.85
2023-05-22T06:35:13.092Z,40.75
2023-05-22T06:37:43.041Z,39.87
2023-05-22T06:40:11.246Z,39.63
2023-05-22T06:43:01.490Z,39.31
2023-05-22T06:45:46.701Z,39.29
2023-05-22T06:48:35.195Z,39.73
2023-05-22T06:51:16.370Z,38.99
2023-05-22T06:53:46.377Z,38.98
2023-05-22T06:56:17.947Z,39.42
2023-05-22T06:58:52.250Z,39.15
2023-05-22T07:01:19.603Z,38.94
2023-05-22T07:03:57.978Z,38.66
2023-05-22T07:06:39.157Z,38.24
2023-05-22T07:09:06.462Z,37.48
2023-05-22T07:11:33.634Z,38.01
2023-05-22T07:14:01.468Z,38.53
2023-05-22T07:16:40.626Z,39.13
2023-05-22T07:19:12.135Z,39.40
2023-05-22T07:21:45.771Z,39.25
2023-05-22T07:24:22.412Z,37.44
2023-05-22T07:26:58.279Z,37.70
2023-05-22T07:30:13.793Z,37.62
2023-05-22T07:32:41.307Z,38.03
2023-05-22T07:35:10.787Z,38.17
2023-05-22T07:38:25.504Z,37.99
2023-05-22T07:41:04.931Z,37.87
2023-05-22T07:44:11.084Z,37.34
2023-05-22T07:46:47.168Z,37.20
2023-05-22T07:49:22.289Z,37.55
2023-05-22T07:51:50.081Z,36.64
2023-05-22T07:54:18.439Z,36.28
2023-05-22T07:56:47.916Z,36.26
2023-05-22T07:59:16.146Z,35.86
2023-05-22T08:01:43.188Z,35.44
2023-05-22T08:04:10.552Z,34.31
2023-05-22T08:06:37.632Z,33.41
2023-05-22T08:09:05.133Z,33.59
2023-05-22T08:11:32.349Z,33.98
2023-05-22T08:13:59.174Z,34.15
2023-05-22T08:16:26.100Z,34.03
2023-05-22T08:18:53.125Z,33.85
2023-05-22T08:21:23.120Z,32.69
2023-05-22T08:23:51.243Z,32.53
2023-05-22T08:26:18.141Z,32.66
2023-05-22T08:28:45.004Z,33.27
2023-05-22T08:31:12.365Z,32.98
2023-05-22T08:33:39.875Z,31.86
2023-05-22T08:36:06.798Z,30.67
2023-05-22T08:38:33.838Z,30.54
2023-05-22T08:41:00.965Z,30.68
2023-05-22T08:43:28.654Z,30.89
2023-05-22T08:46:06.228Z,30.76
2023-05-22T08:48:33.355Z,31.31
2023-05-22T08:51:07.382Z,31.08
2023-05-22T08:53:36.069Z,30.72
2023-05-22T08:56:05.731Z,30.52
2023-05-22T08:58:33.630Z,30.29
2023-05-22T09:01:00.612Z,30.47
2023-05-22T09:03:29.145Z,30.50
2023-05-22T09:05:56.311Z,30.80
2023-05-22T09:08:24.244Z,30.82
2023-05-22T09:10:51.370Z,30.47
2023-05-22T09:13:31.548Z,30.88
2023-05-22T09:16:55.977Z,30.77
2023-05-22T09:19:29.620Z,31.04
2023-05-22T09:22:05.202Z,30.58
2023-05-22T09:24:37.828Z,30.87
2023-05-22T09:27:06.684Z,30.90
2023-05-22T09:29:48.542Z,31.60
2023-05-22T09:32:16.520Z,30.79
2023-05-22T09:34:45.246Z,30.79
2023-05-22T09:37:12.473Z,31.48
2023-05-22T09:39:42.704Z,31.74
2023-05-22T09:42:11.641Z,30.65
2023-05-22T09:44:39.350Z,29.91
2023-05-22T09:47:06.622Z,30.67
2023-05-22T09:49:41.618Z,29.74
2023-05-22T09:52:09.293Z,29.31
2023-05-22T09:54:36.715Z,28.89
2023-05-22T09:57:04.044Z,29.04
2023-05-22T09:59:31.619Z,28.64
2023-05-22T10:01:58.623Z,28.84
2023-05-22T10:04:25.710Z,29.14
2023-05-22T10:06:55.710Z,29.06
2023-05-22T10:09:24.795Z,29.07
2023-05-22T10:11:55.469Z,29.46
2023-05-22T10:14:22.434Z,30.04
2023-05-22T10:16:49.422Z,30.09
2023-05-22T10:19:16.350Z,28.75
2023-05-22T10:21:43.591Z,28.33
2023-05-22T10:24:10.475Z,28.13
2023-05-22T10:26:37.673Z,27.77
2023-05-22T10:29:12.061Z,27.11
2023-05-22T10:32:08.360Z,27.35
2023-05-22T10:35:01.798Z,27.29
2023-05-22T10:37:32.999Z,27.54
2023-05-22T10:40:06.347Z,27.52
2023-05-22T10:42:33.281Z,27.54
2023-05-22T10:45:04.407Z,27.09
2023-05-22T10:47:33.568Z,27.68
2023-05-22T10:50:07.772Z,28.04
2023-05-22T10:52:38.646Z,27.72
2023-05-22T10:55:09.434Z,27.52
2023-05-22T10:57:40.182Z,26.94
2023-05-22T11:00:11.550Z,26.99
2023-05-22T11:02:41.092Z,27.58
2023-05-22T11:05:17.098Z,27.54
2023-05-22T11:07:44.066Z,26.84
2023-05-22T11:10:11.427Z,26.50
2023-05-22T11:12:38.313Z,27.03
2023-05-22T11:15:06.214Z,27.19
2023-05-22T11:17:39.884Z,26.76
2023-05-22T11:20:13.032Z,26.22
2023-05-22T11:22:41.829Z,25.61
2023-05-22T11:25:10.815Z,25.57
2023-05-22T11:39:35.622Z,25.45
2023-05-22T11:42:04.647Z,25.39
2023-05-22T11:44:31.531Z,25.18
2023-05-22T11:46:58.513Z,25.67
2023-05-22T11:49:25.450Z,25.10
2023-05-22T11:51:52.562Z,25.12
2023-05-22T11:54:19.687Z,25.42
2023-05-22T11:56:47.312Z,24.94
2023-05-22T11:59:14.713Z,24.93
2023-05-22T12:01:42.247Z,25.01
2023-05-22T12:04:09.736Z,25.48
2023-05-22T12:06:37.370Z,25.29
2023-05-22T12:09:05.204Z,24.83
2023-05-22T12:11:35.278Z,25.04
2023-05-22T12:14:05.888Z,23.87
2023-05-22T12:16:36.909Z,23.59
2023-05-22T12:19:06.649Z,23.92
2023-05-22T12:21:34.169Z,23.66
2023-05-22T12:24:05.868Z,23.33
2023-05-22T12:26:33.729Z,23.73
2023-05-22T12:29:01.350Z,23.69
2023-05-22T12:31:28.797Z,23.66
2023-05-22T12:33:56.725Z,22.89
2023-05-22T12:36:53.542Z,23.57
2023-05-22T12:39:21.454Z,23.86
2023-05-22T12:41:48.852Z,23.11
2023-05-22T12:44:16.669Z,23.01
2023-05-22T12:46:44.077Z,22.68
2023-05-22T12:49:11.599Z,22.73
2023-05-22T12:51:39.066Z,22.81
2023-05-22T12:54:06.551Z,23.79
2023-05-22T12:56:34.036Z,23.46
2023-05-22T12:59:01.499Z,22.76
2023-05-22T13:01:29.054Z,22.84
2023-05-22T13:03:56.732Z,22.76
2023-05-22T13:06:24.365Z,22.39
2023-05-22T13:08:51.732Z,22.39
2023-05-22T13:11:20.252Z,22.43
2023-05-22T13:13:51.329Z,22.05
2023-05-22T13:16:19.526Z,21.58
2023-05-22T13:18:47.338Z,21.45
2023-05-22T13:21:14.968Z,21.25
2023-05-22T13:23:42.422Z,21.94
2023-05-22T13:26:09.988Z,21.70
2023-05-22T13:28:37.448Z,21.20
2023-05-22T13:31:04.879Z,21.77
2023-05-22T13:33:32.350Z,21.65
2023-05-22T13:35:59.825Z,21.83
2023-05-22T13:38:27.362Z,21.71
2023-05-22T13:40:54.929Z,21.44
2023-05-22T13:43:22.463Z,21.11
2023-05-22T13:45:50.128Z,21.07
2023-05-22T13:54:55.675Z,20.73
2023-05-22T13:57:45.092Z,20.14
2023-05-22T14:00:25.588Z,19.25
2023-05-22T14:03:09.997Z,17.71
2023-05-22T14:05:48.708Z,16.29
2023-05-22T14:08:39.603Z,14.94
2023-05-22T14:11:18.699Z,14.08
2023-05-22T14:13:52.802Z,13.56
2023-05-22T14:16:24.348Z,13.76
2023-05-22T14:19:11.380Z,13.29
2023-05-22T14:21:54.362Z,12.63
2023-05-22T14:24:38.075Z,12.39
2023-05-22T14:27:10.894Z,12.53
2023-05-22T14:29:58.028Z,12.36
2023-05-22T14:32:34.231Z,11.88
2023-05-22T14:35:07.073Z,11.98
2023-05-22T14:37:50.817Z,12.00
2023-05-22T14:40:34.443Z,11.84
2023-05-22T14:43:12.977Z,11.21
2023-05-22T14:46:19.573Z,11.04
2023-05-22T14:49:46.562Z,10.82
2023-05-22T14:52:49.142Z,10.48
2023-05-22T14:55:32.550Z,9.85
2023-05-22T14:58:32.431Z,9.89
2023-05-22T15:01:26.654Z,9.93
2023-05-22T16:33:46.273Z,16.83
2023-05-22T16:36:13.738Z,17.35
2023-05-22T16:38:42.083Z,18.01
2023-05-22T16:41:09.542Z,18.55
2023-05-22T16:43:38.533Z,18.75
2023-05-22T16:46:09.270Z,18.96
2023-05-22T16:48:36.777Z,19.50
2023-05-22T16:51:04.399Z,19.73
2023-05-22T16:53:31.800Z,20.10
2023-05-22T16:56:00.134Z,20.56
2023-05-22T16:58:27.571Z,21.01
2023-05-22T17:00:55.247Z,21.36
2023-05-22T17:03:22.996Z,21.47
2023-05-22T17:05:51.550Z,21.53
2023-05-22T17:08:18.993Z,21.99
2023-05-22T17:10:46.337Z,22.20
2023-05-22T17:13:20.855Z,22.60
2023-05-22T17:15:49.107Z,22.98
2023-05-22T17:18:19.796Z,23.33
2023-05-22T17:20:48.323Z,23.39
2023-05-22T17:23:16.186Z,23.53
2023-05-22T17:25:46.599Z,23.88
2023-05-22T17:28:17.665Z,24.20
2023-05-22T17:30:46.223Z,24.44
2023-05-22T17:33:14.257Z,24.80
2023-05-22T17:35:42.249Z,24.81
2023-05-22T17:38:10.265Z,24.88
2023-05-22T17:40:44.799Z,24.99
2023-05-22T17:43:12.778Z,25.30
2023-05-22T17:45:40.477Z,25.45
2023-05-22T17:48:08.267Z,25.41
2023-05-22T17:50:35.883Z,25.59
2023-05-22T17:53:03.491Z,25.71
2023-05-22T17:55:30.974Z,25.96
2023-05-22T17:57:59.126Z,26.13
2023-05-22T18:00:26.584Z,26.14
2023-05-22T18:02:54.211Z,26.23
2023-05-22T18:05:22.002Z,26.32
2023-05-22T18:07:49.577Z,26.46
2023-05-22T18:10:17.233Z,26.66
2023-05-22T18:12:44.751Z,26.85
2023-05-22T18:15:12.471Z,27.06
2023-05-22T18:17:41.466Z,27.14
2023-05-22T18:20:12.024Z,27.42
2023-05-22T18:22:39.832Z,27.79
2023-05-22T18:25:08.086Z,28.18
2023-05-22T18:27:36.198Z,28.51
2023-05-22T18:30:05.325Z,28.92
2023-05-22T18:32:32.939Z,29.43
2023-05-22T18:35:03.181Z,29.83
2023-05-22T18:37:31.001Z,30.54
2023-05-22T18:39:58.504Z,31.07
2023-05-22T18:42:25.915Z,31.55
2023-05-22T18:44:53.620Z,31.70
2023-05-22T18:47:20.949Z,31.95
2023-05-22T18:49:48.473Z,32.20
2023-05-22T18:52:15.965Z,32.28
2023-05-22T18:54:43.515Z,32.53
2023-05-22T18:57:11.116Z,32.74
2023-05-22T18:59:38.530Z,32.62
2023-05-22T19:02:06.008Z,32.97
2023-05-22T19:04:33.413Z,32.99
2023-05-22T19:07:00.866Z,33.29
2023-05-22T19:09:28.267Z,33.08
2023-05-22T19:11:56.076Z,33.33
2023-05-22T19:14:23.632Z,33.33
2023-05-22T19:16:51.075Z,33.47
2023-05-22T19:19:18.833Z,33.59
2023-05-22T19:21:46.517Z,33.85
2023-05-22T19:24:13.977Z,33.97
2023-05-22T19:26:41.642Z,34.06
2023-05-22T19:29:09.016Z,34.38
2023-05-22T19:31:36.683Z,34.53
2023-05-22T19:34:04.591Z,34.66
2023-05-22T19:36:32.844Z,34.52
2023-05-22T19:39:00.264Z,35.24
2023-05-22T19:41:28.051Z,35.29
2023-05-22T19:43:55.485Z,35.07
2023-05-22T19:46:23.052Z,34.99
2023-05-22T19:48:50.704Z,35.09
2023-05-22T19:51:18.163Z,35.20
2023-05-22T19:53:45.654Z,35.08
2023-05-22T19:56:13.185Z,35.11
2023-05-22T19:58:40.738Z,35.21
2023-05-22T20:01:08.144Z,35.48
2023-05-22T20:03:35.992Z,35.48
2023-05-22T20:06:05.021Z,35.45
2023-05-22T20:08:32.367Z,35.53
2023-05-22T20:10:59.811Z,35.46
2023-05-22T20:13:27.418Z,35.60
2023-05-22T20:15:54.901Z,35.90
2023-05-22T20:18:23.166Z,36.04
2023-05-22T20:20:50.574Z,36.11
2023-05-22T20:23:18.080Z,36.10
2023-05-22T20:25:45.618Z,36.06
2023-05-22T20:28:12.992Z,36.00
2023-05-22T20:30:40.566Z,36.27
2023-05-22T20:33:08.420Z,36.32
2023-05-22T20:35:37.426Z,36.52
2023-05-22T20:38:08.798Z,36.66
2023-05-22T20:40:37.113Z,36.77
2023-05-22T20:43:04.798Z,36.92
2023-05-22T20:45:32.495Z,37.08
2023-05-22T20:48:00.758Z,37.31
2023-05-22T20:50:28.366Z,37.29
2023-05-22T20:52:55.799Z,37.30
2023-05-22T20:55:23.337Z,37.83
2023-05-22T20:57:50.988Z,38.29
2023-05-22T21:00:19.287Z,38.43
2023-05-22T21:02:46.694Z,38.49
2023-05-22T21:05:14.098Z,38.56
2023-05-22T21:07:41.636Z,38.64
2023-05-22T21:10:09.579Z,38.89
2023-05-22T21:12:37.009Z,39.23
2023-05-22T21:15:05.247Z,39.57
2023-05-22T21:17:32.639Z,40.08
2023-05-22T21:19:59.971Z,40.04
2023-05-22T21:22:27.515Z,40.39
2023-05-22T21:24:54.972Z,40.61
2023-05-22T21:27:22.470Z,40.58
2023-05-22T21:29:50.093Z,40.62
2023-05-22T21:32:18.600Z,41.56
2023-05-22T21:34:46.808Z,42.06
2023-05-22T21:37:14.254Z,41.50
2023-05-22T21:39:41.816Z,42.18
2023-05-22T21:42:09.331Z,42.00
2023-05-22T21:44:37.710Z,41.76
2023-05-22T21:47:05.551Z,41.93
2023-05-22T21:49:33.442Z,41.85
2023-05-22T21:52:01.203Z,41.50
2023-05-22T21:54:28.790Z,41.40
2023-05-22T21:56:56.242Z,41.33
2023-05-22T21:59:23.798Z,41.29
2023-05-22T22:01:51.374Z,41.49
2023-05-22T22:04:19.018Z,41.70
2023-05-22T22:06:46.466Z,42.61
2023-05-22T22:09:13.922Z,43.73
2023-05-22T22:11:41.297Z,45.39
2023-05-22T22:14:08.742Z,46.88
2023-05-22T22:16:36.570Z,48.36
2023-05-22T22:19:04.484Z,48.25
2023-05-22T22:21:33.661Z,47.49
2023-05-22T22:24:01.444Z,46.33
2023-05-22T22:26:30.248Z,45.45
2023-05-22T22:28:58.092Z,44.28
2023-05-22T22:31:26.458Z,43.59
2023-05-22T22:33:54.133Z,42.79
2023-05-22T22:36:23.020Z,42.97
2023-05-22T22:38:50.713Z,42.51
2023-05-22T22:41:18.143Z,42.65
2023-05-22T22:43:45.604Z,42.32
2023-05-22T22:46:13.763Z,42.15
2023-05-22T22:48:42.078Z,42.25
2023-05-22T22:51:09.853Z,42.12
2023-05-22T22:53:37.457Z,42.29
2023-05-22T22:56:05.150Z,42.40
2023-05-22T22:58:32.631Z,42.57
2023-05-22T23:01:00.215Z,42.58
2023-05-22T23:03:27.820Z,42.64
2023-05-22T23:05:55.703Z,42.62
2023-05-22T23:08:23.479Z,42.58
2023-05-22T23:10:50.832Z,42.82
2023-05-22T23:13:18.387Z,42.90
2023-05-22T23:15:45.905Z,42.73
2023-05-22T23:18:14.052Z,42.88
2023-05-22T23:20:41.494Z,43.17
2023-05-22T23:23:08.874Z,43.50
2023-05-22T23:25:36.235Z,43.87
2023-05-22T23:28:03.691Z,44.11
2023-05-22T23:30:31.198Z,44.41
2023-05-22T23:32:58.678Z,44.58
2023-05-22T23:35:26.155Z,44.94
2023-05-22T23:37:53.601Z,45.31
2023-05-22T23:40:21.099Z,45.34
2023-05-22T23:42:48.517Z,45.13
2023-05-22T23:45:15.967Z,44.99
2023-05-22T23:47:43.383Z,44.98
2023-05-22T23:50:11.196Z,44.89
2023-05-22T23:52:38.616Z,45.03
2023-05-22T23:55:06.754Z,45.19
2023-05-22T23:57:34.189Z,45.65
